Time;durP1;ratioP1;P1;durP2;ratioP2;P2;SDS_P1;SDS_P2;PMS_P1;PMS_P2;Temp;Humidity;BMP_temperature;BMP_pressure;BME280_temperature;BME280_humidity;BME280_pressure;Samples;Min_cycle;Max_cycle;Signal;HPM_P1;HPM_P2
2022/05/26 00:00:10;;;;;;;2.97;1.37;;;;;;;18.04;43.51;99182.19;5093869;28;41908;-81
2022/05/26 00:02:39;;;;;;;2.27;0.80;;;;;;;18.07;43.51;99176.53;5111998;28;42913;-78
2022/05/26 00:05:07;;;;;;;3.43;1.27;;;;;;;18.06;43.30;99180.19;5111150;28;40964;-80
2022/05/26 00:07:35;;;;;;;1.00;0.80;;;;;;;18.05;43.28;99183.84;5110828;28;40895;-77
2022/05/26 00:10:03;;;;;;;0.60;0.60;;;;;;;18.05;43.56;99183.84;5111101;28;42825;-85
2022/05/26 00:12:32;;;;;;;1.07;0.70;;;;;;;18.02;43.34;99184.13;5093355;28;41071;-77
2022/05/26 00:14:59;;;;;;;0.70;0.70;;;;;;;18.00;43.67;99180.75;5093966;28;38757;-77
2022/05/26 00:17:28;;;;;;;1.07;0.77;;;;;;;17.99;43.99;99179.03;5093829;28;41718;-76
2022/05/26 00:19:58;;;;;;;0.80;0.70;;;;;;;17.98;43.69;99185.38;5110882;28;41732;-81
2022/05/26 00:22:26;;;;;;;1.03;0.50;;;;;;;17.98;43.77;99188.06;5110767;28;43757;-82
2022/05/26 00:24:54;;;;;;;1.37;0.50;;;;;;;17.98;43.85;99188.06;5093906;28;39992;-80
2022/05/26 00:27:22;;;;;;;0.67;0.67;;;;;;;17.97;44.05;99185.50;5093153;28;40657;-83
2022/05/26 00:29:49;;;;;;;0.70;0.70;;;;;;;17.92;44.34;99184.09;5110569;28;41740;-79
2022/05/26 00:32:17;;;;;;;1.17;0.70;;;;;;;17.94;44.24;99186.63;5110366;28;42288;-80
2022/05/26 00:34:45;;;;;;;1.50;0.87;;;;;;;17.92;44.18;99188.63;5112123;27;40944;-76
2022/05/26 00:37:14;;;;;;;0.93;0.90;;;;;;;17.88;44.10;99190.72;5113202;28;40906;-79
2022/05/26 00:39:41;;;;;;;2.50;1.10;;;;;;;17.85;44.27;99182.94;5114150;28;42744;-79
2022/05/26 00:42:11;;;;;;;0.77;0.77;;;;;;;17.84;44.24;99193.78;5115379;28;41979;-79
2022/05/26 00:44:38;;;;;;;0.93;0.80;;;;;;;17.81;44.56;99196.72;5115366;28;40497;-79
2022/05/26 00:47:10;;;;;;;1.00;0.70;;;;;;;17.80;44.57;99195.03;5114230;28;42357;-78
2022/05/26 00:49:43;;;;;;;1.40;0.63;;;;;;;17.77;44.86;99192.63;5115526;28;44503;-77
2022/05/26 00:52:16;;;;;;;2.17;0.80;;;;;;;17.75;44.93;99191.91;5110831;28;42493;-79
2022/05/26 00:54:46;;;;;;;0.73;0.60;;;;;;;17.72;45.11;99186.81;5114276;28;39953;-77
2022/05/26 00:57:17;;;;;;;0.83;0.60;;;;;;;17.58;45.27;99175.41;5113627;28;40544;-76
2022/05/26 00:59:55;;;;;;;0.60;0.60;;;;;;;17.71;45.21;99188.63;5110722;28;42857;-77
2022/05/26 01:02:26;;;;;;;0.77;0.60;;;;;;;17.73;45.04;99189.34;5096633;28;41402;-81
2022/05/26 01:04:57;;;;;;;1.63;0.70;;;;;;;17.74;45.00;99190.19;5096974;28;39053;-79
2022/05/26 01:07:30;;;;;;;2.10;0.80;;;;;;;17.74;45.07;99190.19;5110740;28;41691;-76
2022/05/26 01:09:58;;;;;;;2.43;1.00;;;;;;;17.74;45.28;99187.53;5110869;28;42852;-79
2022/05/26 01:12:26;;;;;;;1.40;0.83;;;;;;;17.71;45.19;99185.09;5114475;28;42232;-74
2022/05/26 01:15:00;;;;;;;1.27;0.90;;;;;;;17.70;45.44;99188.75;5115014;28;40130;-76
2022/05/26 01:17:40;;;;;;;0.80;0.73;;;;;;;17.69;45.36;99192.41;5111587;28;41673;-78
2022/05/26 01:20:31;;;;;;;0.70;0.70;;;;;;;17.70;45.62;99189.63;5096787;28;43195;-81
2022/05/26 01:23:29;;;;;;;0.63;0.53;;;;;;;17.70;45.67;99189.63;5113224;28;41207;-75
2022/05/26 01:26:28;;;;;;;1.00;0.73;;;;;;;17.72;45.42;99194.84;5111731;28;39819;-79
2022/05/26 01:29:40;;;;;;;0.83;0.80;;;;;;;17.73;45.25;99194.72;5112092;27;42284;-80
2022/05/26 01:32:17;;;;;;;1.87;1.07;;;;;;;17.64;45.76;99183.94;5113610;28;42300;-82
2022/05/26 01:34:56;;;;;;;1.87;1.07;;;;;;;17.70;45.79;99188.75;5113782;28;42338;-75
2022/05/26 01:37:34;;;;;;;0.90;0.70;;;;;;;17.60;45.65;99189.53;5113327;28;39595;-84
2022/05/26 01:40:09;;;;;;;1.87;0.80;;;;;;;17.50;45.86;99167.22;5110511;28;41827;-78
2022/05/26 01:42:43;;;;;;;1.07;0.77;;;;;;;17.66;45.60;99190.03;5112933;28;41887;-82
2022/05/26 01:45:18;;;;;;;0.63;0.63;;;;;;;17.66;45.87;99193.56;5110208;28;42175;-76
2022/05/26 01:47:52;;;;;;;2.10;0.60;;;;;;;17.66;46.07;99192.72;5096204;28;38516;-80
2022/05/26 01:50:26;;;;;;;1.00;0.80;;;;;;;17.66;46.42;99192.72;5110250;28;41445;-81
2022/05/26 01:53:06;;;;;;;0.90;0.70;;;;;;;17.66;45.97;99188.19;5112001;28;42816;-76
2022/05/26 01:55:41;;;;;;;1.53;1.00;;;;;;;17.60;46.54;99184.16;5113410;28;42639;-83
2022/05/26 01:58:13;;;;;;;0.87;0.87;;;;;;;17.65;46.47;99191.00;5095802;28;39462;-77
2022/05/26 02:00:41;;;;;;;1.17;0.73;;;;;;;17.63;46.21;99188.47;5113183;28;41825;-79
2022/05/26 02:03:13;;;;;;;0.80;0.80;;;;;;;17.64;46.47;99190.16;5113971;28;43590;-80
2022/05/26 02:05:47;;;;;;;0.73;0.73;;;;;;;17.64;46.59;99189.31;5096142;28;41438;-80
2022/05/26 02:08:19;;;;;;;1.00;0.83;;;;;;;17.60;46.46;99176.13;5096084;28;38844;-81
2022/05/26 02:10:53;;;;;;;0.97;0.80;;;;;;;17.60;46.44;99184.16;5095755;28;40872;-77
2022/05/26 02:13:28;;;;;;;0.70;0.67;;;;;;;17.63;46.56;99187.56;5095211;28;41773;-80
2022/05/26 02:15:59;;;;;;;0.97;0.70;;;;;;;17.65;46.29;99191.00;5095423;28;42128;-77
2022/05/26 02:18:33;;;;;;;0.70;0.70;;;;;;;17.66;46.90;99192.72;5111021;28;40112;-77
2022/05/26 02:21:07;;;;;;;1.00;0.60;;;;;;;17.66;46.88;99192.72;5109774;28;41836;-79
2022/05/26 02:23:38;;;;;;;1.17;0.80;;;;;;;17.65;47.10;99185.66;5112395;28;42664;-81
2022/05/26 02:26:08;;;;;;;0.60;0.60;;;;;;;17.62;46.63;99184.03;5110738;28;42164;-80
2022/05/26 02:31:20;;;;;;;1.10;1.00;;;;;;;17.62;46.83;99192.06;5110268;28;41840;-77
2022/05/26 02:33:51;;;;;;;1.07;0.97;;;;;;;17.62;46.43;99191.22;5095118;28;44758;-78
2022/05/26 02:36:19;;;;;;;1.50;0.70;;;;;;;17.62;46.79;99193.91;5113867;28;42764;-80
2022/05/26 02:38:48;;;;;;;0.50;0.50;;;;;;;17.62;46.75;99188.56;5112067;28;40364;-81
2022/05/26 02:41:15;;;;;;;3.00;0.70;;;;;;;17.62;47.03;99191.22;5113440;28;42605;-80
2022/05/26 02:43:43;;;;;;;1.27;0.70;;;;;;;17.59;47.05;99185.16;5111797;28;41743;-74
2022/05/26 02:46:25;;;;;;;0.57;0.40;;;;;;;17.57;46.92;99195.16;5113291;28;42378;-79
2022/05/26 02:49:14;;;;;;;0.70;0.50;;;;;;;17.58;47.28;99190.63;5111162;28;40015;-83
2022/05/26 02:51:48;;;;;;;2.03;0.70;;;;;;;17.57;47.42;99191.63;5095341;28;40837;-73
2022/05/26 02:54:27;;;;;;;1.17;0.70;;;;;;;17.57;47.45;99188.94;5112100;28;42755;-80
2022/05/26 02:57:08;;;;;;;0.40;0.40;;;;;;;17.56;47.32;99188.09;5110049;28;43190;-78
2022/05/26 02:59:44;;;;;;;0.60;0.53;;;;;;;17.57;47.64;99195.16;5112486;27;40137;-81
2022/05/26 03:02:20;;;;;;;1.63;0.60;;;;;;;17.51;47.76;99184.97;5112076;28;40734;-78
2022/05/26 03:04:56;;;;;;;1.13;0.60;;;;;;;17.54;47.35;99198.09;5109062;28;43779;-80
2022/05/26 03:07:28;;;;;;;0.53;0.43;;;;;;;17.52;48.03;99194.72;5109171;28;43120;-78
2022/05/26 03:09:56;;;;;;;2.87;0.50;;;;;;;17.52;47.62;99201.88;5095073;28;38913;-81
2022/05/26 03:12:25;;;;;;;1.07;0.60;;;;;;;17.53;47.58;99201.75;5111702;28;42619;-77
2022/05/26 03:14:53;;;;;;;0.50;0.50;;;;;;;17.52;47.79;99201.88;5094483;28;42282;-80
2022/05/26 03:17:21;;;;;;;1.03;0.60;;;;;;;17.52;47.56;99199.22;5111397;28;41131;-79
2022/05/26 03:19:50;;;;;;;0.50;0.50;;;;;;;17.53;47.79;99198.22;5111886;28;39122;-80
2022/05/26 03:22:19;;;;;;;0.97;0.57;;;;;;;17.56;47.79;99197.94;5111340;28;41783;-83
2022/05/26 03:24:46;;;;;;;3.63;0.67;;;;;;;17.55;47.67;99199.81;5111753;28;42689;-76
2022/05/26 03:27:15;;;;;;;1.30;0.40;;;;;;;17.56;47.89;99198.78;5111335;28;40805;-79
2022/05/26 03:29:42;;;;;;;1.43;0.80;;;;;;;17.57;48.05;99195.16;5094691;28;40749;-75
2022/05/26 03:32:10;;;;;;;1.67;0.60;;;;;;;17.56;48.21;99198.78;5111640;28;41738;-77
2022/05/26 03:42:55;;;;;;;0.40;0.40;;;;;;;17.54;48.10;99200.78;5110116;28;41727;-80
2022/05/26 03:45:24;;;;;;;0.63;0.60;;;;;;;17.56;47.65;99198.78;5111379;28;41661;-80
2022/05/26 03:47:52;;;;;;;0.57;0.53;;;;;;;17.60;47.83;99199.41;5112220;28;41990;-77
2022/05/26 03:50:20;;;;;;;0.60;0.60;;;;;;;17.57;47.78;99189.78;5111439;28;39588;-75
2022/05/26 03:52:51;;;;;;;0.73;0.70;;;;;;;17.64;48.01;99200.88;5093997;28;40749;-76
2022/05/26 03:55:18;;;;;;;0.60;0.60;;;;;;;17.65;47.87;99205.25;5094820;28;41755;-79
2022/05/26 03:57:46;;;;;;;0.90;0.50;;;;;;;17.66;47.63;99204.28;5112459;28;42217;-77
2022/05/26 04:00:17;;;;;;;0.73;0.50;;;;;;;17.67;47.43;99208.66;5111145;28;39971;-78
2022/05/26 04:02:45;;;;;;;0.50;0.50;;;;;;;17.66;47.82;99208.78;5110986;28;41521;-78
2022/05/26 04:05:14;;;;;;;0.53;0.50;;;;;;;17.59;47.80;99198.53;5093891;28;41665;-77
2022/05/26 04:07:41;;;;;;;1.10;0.53;;;;;;;17.63;47.93;99212.56;5112066;28;42317;-80
2022/05/26 04:10:13;;;;;;;1.03;0.60;;;;;;;17.60;47.63;99216.31;5111004;27;38804;-76
2022/05/26 04:12:42;;;;;;;0.90;0.70;;;;;;;17.59;48.00;99219.97;5114784;28;41671;-78
2022/05/26 04:15:11;;;;;;;0.70;0.63;;;;;;;17.58;47.76;99223.63;5114599;28;42809;-76
2022/05/26 04:17:39;;;;;;;0.50;0.50;;;;;;;17.65;48.07;99223.16;5114220;28;42228;-76
2022/05/26 04:20:09;;;;;;;0.80;0.53;;;;;;;17.71;47.76;99227.97;5115738;28;39943;-80
2022/05/26 04:22:36;;;;;;;1.20;0.80;;;;;;;17.62;48.17;99209.97;5115628;28;41683;-78
2022/05/26 04:25:05;;;;;;;0.70;0.70;;;;;;;17.69;47.89;99225.41;5114788;28;42838;-83
2022/05/26 04:27:35;;;;;;;0.97;0.60;;;;;;;17.66;48.26;99224.84;5113279;28;42223;-77
2022/05/26 04:30:05;;;;;;;3.20;0.57;;;;;;;17.69;48.21;99232.59;5111469;28;40896;-78
2022/05/26 04:32:33;;;;;;;0.77;0.77;;;;;;;17.69;48.74;99221.88;5097225;28;40671;-75
2022/05/26 04:35:00;;;;;;;0.63;0.53;;;;;;;17.70;48.39;99232.47;5114554;28;41693;-78
2022/05/26 04:37:28;;;;;;;0.97;0.80;;;;;;;17.71;48.52;99238.69;5115240;28;42280;-80
2022/05/26 04:39:58;;;;;;;1.17;0.60;;;;;;;17.73;48.95;99226.00;5114344;28;40922;-75
2022/05/26 04:42:27;;;;;;;0.50;0.50;;;;;;;17.74;48.83;99227.72;5115113;28;41736;-82
2022/05/26 04:44:56;;;;;;;0.60;0.50;;;;;;;17.87;48.63;99239.06;5114097;28;42871;-80
2022/05/26 04:47:24;;;;;;;2.27;0.50;;;;;;;17.90;48.35;99241.50;5113863;28;43203;-78
2022/05/26 04:49:52;;;;;;;0.73;0.53;;;;;;;17.80;48.48;99213.81;5097441;28;39967;-79
2022/05/26 04:52:23;;;;;;;0.80;0.60;;;;;;;17.98;48.66;99240.81;5113717;28;40581;-80
2022/05/26 04:54:52;;;;;;;0.93;0.60;;;;;;;18.07;48.50;99248.03;5111069;28;42723;-79
2022/05/26 04:57:21;;;;;;;0.57;0.50;;;;;;;18.12;48.43;99249.34;5115071;28;41939;-76
2022/05/26 04:59:50;;;;;;;0.70;0.70;;;;;;;18.15;48.32;99254.47;5114101;28;39965;-80
2022/05/26 05:02:21;;;;;;;1.03;0.80;;;;;;;18.20;48.54;99254.88;5113434;28;40546;-78
2022/05/26 05:04:51;;;;;;;1.17;0.50;;;;;;;18.26;48.68;99261.56;5111087;28;42948;-77
2022/05/26 05:07:20;;;;;;;0.70;0.57;;;;;;;18.29;48.65;99262.16;5096790;28;41383;-74
2022/05/26 05:09:48;;;;;;;1.33;0.70;;;;;;;18.35;48.38;99265.25;5113878;28;39224;-73
2022/05/26 05:12:21;;;;;;;0.80;0.60;;;;;;;18.46;48.68;99262.47;5113690;28;41605;-80
2022/05/26 05:14:51;;;;;;;1.03;0.77;;;;;;;18.55;48.81;99267.00;5096748;28;41383;-80
2022/05/26 05:17:23;;;;;;;1.00;0.50;;;;;;;18.62;48.27;99271.75;5096695;28;42337;-81
2022/05/26 05:19:51;;;;;;;0.50;0.50;;;;;;;18.76;47.93;99275.88;5110700;28;40898;-77
2022/05/26 05:22:23;;;;;;;0.77;0.70;;;;;;;18.97;47.58;99279.31;5113208;27;40672;-78
2022/05/26 05:24:55;;;;;;;0.43;0.43;;;;;;;19.04;47.39;99279.59;5111708;28;42791;-80
2022/05/26 05:27:27;;;;;;;1.53;0.80;;;;;;;19.07;47.92;99289.22;5110983;28;43264;-79
2022/05/26 05:29:59;;;;;;;1.07;1.00;;;;;;;19.06;47.37;99276.78;5096799;28;38928;-76
2022/05/26 05:32:31;;;;;;;1.17;0.53;;;;;;;19.38;47.22;99296.19;5113147;28;41524;-81
2022/05/26 05:35:05;;;;;;;0.70;0.50;;;;;;;19.69;47.13;99308.50;5113363;28;42543;-78
2022/05/26 05:37:34;;;;;;;0.50;0.50;;;;;;;19.75;46.14;99290.97;5113548;28;41090;-83
2022/05/26 05:40:02;;;;;;;0.93;0.60;;;;;;;19.98;46.36;99319.22;5096324;28;39108;-74
2022/05/26 05:42:30;;;;;;;2.30;0.50;;;;;;;20.09;46.06;99319.06;5095775;28;40281;-78
2022/05/26 05:44:58;;;;;;;0.90;0.60;;;;;;;20.17;46.04;99309.41;5112967;28;42675;-77
2022/05/26 05:47:26;;;;;;;0.60;0.60;;;;;;;20.28;46.63;99326.22;5112940;28;42270;-76
2022/05/26 05:49:55;;;;;;;0.70;0.70;;;;;;;20.31;46.32;99320.56;5113048;28;39550;-80
2022/05/26 05:52:25;;;;;;;1.03;0.57;;;;;;;20.30;46.35;99318.84;5113782;28;41781;-75
2022/05/26 05:54:52;;;;;;;0.37;0.37;;;;;;;20.36;45.70;99304.88;5112990;28;42545;-79
2022/05/26 05:57:20;;;;;;;0.57;0.57;;;;;;;20.70;44.71;99336.59;5112577;28;41356;-84
2022/05/26 05:59:48;;;;;;;0.83;0.50;;;;;;;20.88;44.71;99337.53;5113155;28;39937;-76
2022/05/26 06:02:15;;;;;;;0.63;0.50;;;;;;;20.94;44.40;99344.97;5112893;28;40609;-82
2022/05/26 06:04:43;;;;;;;1.07;0.30;;;;;;;20.93;44.22;99343.28;5095924;28;41820;-77
2022/05/26 06:07:15;;;;;;;0.50;0.43;;;;;;;20.78;44.46;99342.06;5112673;28;40816;-78
2022/05/26 06:09:45;;;;;;;0.40;0.40;;;;;;;20.70;44.66;99341.97;5113160;28;39457;-79
2022/05/26 06:12:14;;;;;;;1.10;0.60;;;;;;;20.68;44.83;99342.13;5112965;28;42707;-79
2022/05/26 06:14:42;;;;;;;1.13;0.60;;;;;;;20.65;44.85;99338.88;5112874;28;43780;-80
2022/05/26 06:17:11;;;;;;;0.70;0.60;;;;;;;20.60;44.51;99349.25;5113801;28;43320;-79
2022/05/26 06:19:40;;;;;;;1.07;0.50;;;;;;;20.61;44.21;99349.09;5114049;28;41217;-82
2022/05/26 06:22:10;;;;;;;0.47;0.43;;;;;;;20.76;44.86;99338.72;5095675;28;40817;-79
2022/05/26 06:24:40;;;;;;;0.40;0.40;;;;;;;21.06;43.84;99359.94;5112345;28;43854;-79
2022/05/26 06:29:51;;;;;;;1.27;0.50;;;;;;;21.67;42.67;99372.75;5094831;28;38385;-80
2022/05/26 06:37:52;;;;;;;1.20;0.40;;;;;;;22.21;41.11;99387.09;5113617;28;42949;-77
2022/05/26 06:40:21;;;;;;;0.63;0.50;;;;;;;22.38;42.18;99390.75;5095593;28;39940;-83
2022/05/26 06:42:49;;;;;;;0.60;0.60;;;;;;;22.52;41.73;99396.41;5112192;28;41611;-79
2022/05/26 06:45:19;;;;;;;0.60;0.60;;;;;;;22.50;41.68;99395.72;5112081;28;43036;-77
2022/05/26 06:47:47;;;;;;;1.50;0.50;;;;;;;22.53;40.99;99410.75;5094554;28;42017;-78
2022/05/26 06:50:16;;;;;;;0.43;0.43;;;;;;;22.47;41.21;99409.56;5095134;28;39325;-76
2022/05/26 06:52:43;;;;;;;1.90;0.43;;;;;;;22.49;41.13;99410.25;5112138;28;40721;-82
2022/05/26 06:55:12;;;;;;;1.50;0.50;;;;;;;22.55;41.51;99412.31;5113390;28;42942;-80
2022/05/26 06:57:41;;;;;;;0.63;0.50;;;;;;;22.71;42.18;99402.63;5111945;28;42105;-75
2022/05/26 07:00:10;;;;;;;0.90;0.60;;;;;;;22.86;41.34;99412.72;5113088;28;40229;-78
2022/05/26 07:02:38;;;;;;;0.40;0.40;;;;;;;23.03;41.46;99419.03;5094715;28;40660;-75
2022/05/26 07:05:07;;;;;;;2.37;0.40;;;;;;;23.28;40.83;99426.22;5094994;28;42894;-80
2022/05/26 07:07:35;;;;;;;0.50;0.50;;;;;;;23.40;39.93;99436.75;5111655;28;41340;-86
2022/05/26 07:10:04;;;;;;;0.67;0.60;;;;;;;23.32;40.09;99434.88;5113137;28;40242;-79
2022/05/26 07:12:32;;;;;;;0.50;0.50;;;;;;;23.22;40.28;99435.00;5111060;28;40379;-76
2022/05/26 07:15:03;;;;;;;0.40;0.40;;;;;;;23.33;39.97;99430.31;5111935;28;42941;-77
2022/05/26 07:17:31;;;;;;;0.37;0.37;;;;;;;23.64;40.15;99445.81;5111483;28;42577;-77
2022/05/26 07:19:59;;;;;;;1.10;0.50;;;;;;;23.92;39.48;99443.69;5094822;28;39023;-78
2022/05/26 07:22:26;;;;;;;0.60;0.30;;;;;;;24.26;39.10;99450.84;5094675;28;41771;-77
2022/05/26 07:24:54;;;;;;;0.30;0.30;;;;;;;24.33;39.25;99443.78;5099335;28;41806;-80
2022/05/26 07:27:22;;;;;;;0.70;0.40;;;;;;;24.43;38.55;99457.97;5102510;28;41644;-76
2022/05/26 07:29:50;;;;;;;0.70;0.50;;;;;;;24.80;37.79;99464.72;5121450;28;39115;-74
2022/05/26 07:32:19;;;;;;;0.40;0.40;;;;;;;25.30;37.06;99465.28;5102756;28;40696;-78
2022/05/26 07:34:48;;;;;;;0.30;0.30;;;;;;;25.52;36.67;99470.97;5103919;28;41892;-74
2022/05/26 07:42:48;;;;;;;1.67;0.50;;;;;;;26.70;35.63;99481.44;5110319;28;41603;-80
2022/05/26 07:45:16;;;;;;;0.40;0.40;;;;;;;26.67;34.96;99489.94;5114248;27;43704;-79
2022/05/26 07:47:44;;;;;;;0.70;0.50;;;;;;;26.63;34.75;99494.03;5115040;28;42238;-80
2022/05/26 07:50:19;;;;;;;0.60;0.40;;;;;;;26.73;34.33;99500.06;5115315;28;40985;-78
2022/05/26 07:52:47;;;;;;;0.67;0.30;;;;;;;27.01;34.13;99503.06;5113620;28;41807;-78
2022/05/26 07:55:16;;;;;;;0.40;0.40;;;;;;;26.94;33.77;99509.44;5114936;28;41433;-78
2022/05/26 07:57:46;;;;;;;0.30;0.30;;;;;;;26.86;34.05;99498.59;5114517;28;42361;-79
2022/05/26 08:00:16;;;;;;;0.30;0.30;;;;;;;26.80;33.81;99505.63;5098034;28;39104;-79
2022/05/26 08:02:45;;;;;;;0.50;0.37;;;;;;;26.87;34.66;99494.84;5097661;28;40574;-80
2022/05/26 08:05:13;;;;;;;0.40;0.30;;;;;;;27.24;35.03;99486.66;5114699;28;42870;-76
2022/05/26 08:07:43;;;;;;;0.80;0.40;;;;;;;27.27;34.34;99494.47;5097296;28;42674;-79
2022/05/26 08:10:11;;;;;;;0.30;0.30;;;;;;;27.32;33.71;99493.91;5115867;28;40140;-77
2022/05/26 08:12:39;;;;;;;0.70;0.40;;;;;;;27.47;33.48;99495.56;5097358;28;44172;-83
2022/05/26 08:15:08;;;;;;;0.40;0.37;;;;;;;27.47;33.77;99497.44;5097298;28;44464;-73
2022/05/26 08:17:35;;;;;;;0.83;0.30;;;;;;;27.28;33.49;99500.75;5114402;28;43243;-78
2022/05/26 08:20:06;;;;;;;0.40;0.40;;;;;;;27.13;34.18;99495.28;5114675;28;40930;-81
2022/05/26 08:22:34;;;;;;;0.30;0.30;;;;;;;26.89;34.22;99498.22;5097585;28;40473;-80
2022/05/26 08:25:02;;;;;;;1.70;0.37;;;;;;;26.64;34.41;99506.59;5115737;28;43529;-77
2022/05/26 08:27:30;;;;;;;0.40;0.40;;;;;;;26.50;34.81;99504.69;5114981;28;42524;-82
2022/05/26 08:29:59;;;;;;;0.30;0.30;;;;;;;26.48;35.60;99495.88;5097300;28;39637;-76
2022/05/26 08:32:27;;;;;;;0.30;0.20;;;;;;;26.47;35.41;99508.59;5114101;28;40707;-75
2022/05/26 08:34:57;;;;;;;0.67;0.50;;;;;;;26.57;35.29;99504.81;5097290;28;41125;-77
2022/05/26 08:37:27;;;;;;;0.33;0.33;;;;;;;26.71;35.70;99512.13;5114183;28;41636;-80
2022/05/26 08:39:55;;;;;;;0.30;0.30;;;;;;;26.84;34.67;99513.22;5114470;28;40001;-83
2022/05/26 08:42:27;;;;;;;0.87;0.30;;;;;;;26.87;34.67;99530.19;5096788;28;40852;-77
2022/05/26 08:44:59;;;;;;;0.30;0.30;;;;;;;26.88;34.18;99531.88;5096663;28;42974;-81
2022/05/26 08:47:33;;;;;;;0.67;0.20;;;;;;;26.71;33.86;99540.16;5112041;28;42039;-80
2022/05/26 08:50:06;;;;;;;0.30;0.30;;;;;;;26.50;34.68;99515.56;5112306;28;39889;-80
2022/05/26 08:52:39;;;;;;;0.67;0.30;;;;;;;26.56;33.70;99536.56;5096785;28;40837;-81
2022/05/26 08:55:13;;;;;;;0.47;0.40;;;;;;;26.65;34.09;99534.63;5112048;28;42811;-81
2022/05/26 08:57:43;;;;;;;0.57;0.40;;;;;;;26.89;34.59;99536.28;5095905;28;42882;-81
2022/05/26 09:00:14;;;;;;;0.30;0.30;;;;;;;26.96;34.34;99540.81;5113929;28;39767;-81
2022/05/26 09:02:42;;;;;;;0.30;0.30;;;;;;;26.86;34.13;99531.22;5113557;28;40691;-78
2022/05/26 09:05:13;;;;;;;0.20;0.20;;;;;;;26.80;33.75;99549.97;5096422;28;44151;-76
2022/05/26 09:13:30;;;;;;;0.40;0.30;;;;;;;25.89;34.72;99549.84;5113383;28;40705;-78
2022/05/26 09:16:00;;;;;;;0.40;0.40;;;;;;;25.45;35.16;99556.78;5113430;28;43471;-79
2022/05/26 09:18:28;;;;;;;0.47;0.40;;;;;;;25.18;36.25;99539.88;5096002;28;41340;-78
2022/05/26 09:21:11;;;;;;;0.53;0.37;;;;;;;25.43;36.18;99548.81;5113598;28;40284;-81
2022/05/26 09:23:43;;;;;;;0.97;0.50;;;;;;;26.03;36.07;99551.81;5112491;28;41831;-78
2022/05/26 09:26:12;;;;;;;1.10;0.40;;;;;;;26.51;35.05;99538.97;5096649;28;43019;-78
2022/05/26 09:28:46;;;;;;;1.20;0.50;;;;;;;26.88;34.44;99561.78;5112630;28;42348;-79
2022/05/26 09:31:21;;;;;;;1.47;0.30;;;;;;;26.88;34.15;99567.22;5114255;28;39152;-81
2022/05/26 09:34:08;;;;;;;0.70;0.40;;;;;;;26.70;33.84;99571.13;5112369;28;41526;-80
2022/05/26 09:36:43;;;;;;;0.57;0.30;;;;;;;26.60;34.27;99577.78;5095891;28;44986;-77
2022/05/26 09:39:14;;;;;;;0.73;0.40;;;;;;;26.69;34.61;99574.00;5114169;28;42066;-79
2022/05/26 09:41:43;;;;;;;0.40;0.40;;;;;;;26.69;34.04;99572.13;5096207;28;40075;-82
2022/05/26 09:44:25;;;;;;;0.33;0.30;;;;;;;26.87;33.50;99569.09;5112958;28;40584;-81
2022/05/26 09:46:55;;;;;;;0.50;0.40;;;;;;;27.46;32.57;99567.34;5111072;28;43507;-83
2022/05/26 09:49:26;;;;;;;0.93;0.47;;;;;;;28.89;31.55;99601.25;5114223;28;42902;-79
2022/05/26 09:52:08;;;;;;;1.60;0.40;;;;;;;29.27;31.14;99595.50;5111212;28;41257;-79
2022/05/26 09:54:36;;;;;;;0.47;0.47;;;;;;;29.08;31.51;99587.97;5114505;28;42588;-80
2022/05/26 09:57:15;;;;;;;1.10;0.40;;;;;;;29.09;30.19;99606.88;5095805;28;42824;-76
2022/05/26 09:59:44;;;;;;;0.40;0.40;;;;;;;28.99;29.65;99619.16;5110896;28;42225;-83
2022/05/26 10:02:16;;;;;;;0.40;0.40;;;;;;;28.91;30.22;99593.72;5114085;28;40886;-77
2022/05/26 10:04:54;;;;;;;1.50;0.40;;;;;;;28.85;30.47;99613.56;5096129;28;41779;-79
2022/05/26 10:07:29;;;;;;;0.50;0.50;;;;;;;28.83;31.83;99596.56;5109366;28;43924;-82
2022/05/26 10:10:07;;;;;;;0.90;0.40;;;;;;;29.00;30.29;99608.06;5094677;28;42435;-81
2022/05/26 10:12:44;;;;;;;1.87;0.40;;;;;;;29.76;29.41;99608.25;5110226;28;40192;-83
2022/05/26 10:15:23;;;;;;;0.50;0.50;;;;;;;30.61;28.31;99610.56;5109662;28;41669;-77
2022/05/26 10:18:19;;;;;;;0.40;0.40;;;;;;;30.84;28.32;99610.19;5111325;28;43993;-83
2022/05/26 10:20:53;;;;;;;0.70;0.70;;;;;;;31.14;27.60;99616.13;5110827;28;42302;-83
2022/05/26 10:23:56;;;;;;;0.97;0.50;;;;;;;31.39;27.16;99614.47;5110561;28;39887;-81
2022/05/26 10:26:35;;;;;;;1.93;0.70;;;;;;;31.75;26.09;99623.06;5089800;27;42739;-81
2022/05/26 10:29:27;;;;;;;1.00;0.50;;;;;;;32.31;26.01;99625.22;5111624;28;43149;-84
2022/05/26 10:32:08;;;;;;;0.47;0.47;;;;;;;32.58;26.10;99636.06;5109259;28;42332;-82
2022/05/26 10:34:55;;;;;;;1.07;0.60;;;;;;;32.60;25.23;99628.47;5112209;28;39137;-80
2022/05/26 10:37:35;;;;;;;0.40;0.40;;;;;;;32.72;25.36;99632.22;5095166;28;42015;-77
2022/05/26 10:40:15;;;;;;;0.93;0.30;;;;;;;32.71;26.44;99620.41;5095228;28;43666;-79
2022/05/26 10:42:51;;;;;;;0.60;0.60;;;;;;;32.64;25.91;99629.72;5111947;28;41655;-81
2022/05/26 10:45:20;;;;;;;0.63;0.50;;;;;;;32.42;25.54;99631.91;5095229;28;38789;-77
2022/05/26 10:47:56;;;;;;;0.77;0.60;;;;;;;32.37;26.22;99624.38;5111704;28;41802;-77
2022/05/26 10:50:30;;;;;;;0.77;0.50;;;;;;;32.08;25.32;99635.84;5109941;28;42483;-79
2022/05/26 10:53:05;;;;;;;0.40;0.40;;;;;;;31.78;26.29;99633.56;5110968;28;43356;-82
2022/05/26 10:55:39;;;;;;;0.50;0.50;;;;;;;31.75;26.49;99625.81;5109349;28;39608;-82
2022/05/26 10:58:15;;;;;;;0.97;0.67;;;;;;;31.90;26.50;99619.25;5111075;28;41740;-81
2022/05/26 11:00:43;;;;;;;0.40;0.40;;;;;;;31.72;25.96;99634.44;5110046;28;43757;-77
2022/05/26 11:03:14;;;;;;;1.37;0.40;;;;;;;31.36;26.11;99625.81;5111789;28;42082;-76
2022/05/26 11:05:46;;;;;;;0.57;0.40;;;;;;;31.42;25.70;99616.75;5108927;28;40162;-80
2022/05/26 11:08:26;;;;;;;0.83;0.40;;;;;;;31.50;25.47;99632.13;5094809;28;41019;-85
2022/05/26 11:10:57;;;;;;;0.53;0.40;;;;;;;31.45;26.41;99616.34;5111870;28;42849;-81
2022/05/26 11:13:39;;;;;;;0.60;0.30;;;;;;;31.59;27.08;99609.78;5110164;28;41936;-80
2022/05/26 11:19:06;;;;;;;0.73;0.60;;;;;;;32.32;24.86;99615.94;5111699;28;40944;-80
2022/05/26 11:21:33;;;;;;;0.87;0.50;;;;;;;32.59;25.41;99629.53;5109708;28;42729;-86
2022/05/26 11:24:01;;;;;;;0.47;0.40;;;;;;;32.80;24.89;99630.06;5094281;28;41227;-81
2022/05/26 11:26:38;;;;;;;0.77;0.47;;;;;;;32.95;24.49;99618.78;5111850;28;40203;-79
2022/05/26 11:29:13;;;;;;;1.57;0.40;;;;;;;32.77;25.31;99625.00;5111890;28;42725;-79
2022/05/26 11:37:29;;;;;;;0.93;0.50;;;;;;;32.96;23.90;99628.69;5109677;28;40896;-83
2022/05/26 11:40:01;;;;;;;0.70;0.60;;;;;;;33.67;24.03;99614.59;5111544;28;41032;-80
2022/05/26 11:42:32;;;;;;;0.97;0.40;;;;;;;34.92;24.01;99620.50;5109439;28;43453;-81
2022/05/26 11:45:19;;;;;;;0.53;0.50;;;;;;;36.17;22.11;99626.56;5112648;28;42588;-81
2022/05/26 11:47:58;;;;;;;0.70;0.60;;;;;;;35.98;21.72;99634.16;5108867;28;40929;-82
2022/05/26 11:50:57;;;;;;;1.17;0.60;;;;;;;35.13;21.82;99639.22;5094051;28;40831;-79
2022/05/26 11:53:42;;;;;;;0.40;0.40;;;;;;;33.98;23.08;99621.06;5112332;28;43554;-82
2022/05/26 11:56:50;;;;;;;0.63;0.60;;;;;;;33.00;23.75;99624.44;5108250;28;42288;-79
2022/05/26 11:59:27;;;;;;;0.60;0.60;;;;;;;32.07;24.54;99613.06;5110288;27;40250;-88
2022/05/26 12:02:16;;;;;;;0.60;0.50;;;;;;;31.26;25.35;99615.31;5109121;28;42384;-80
2022/05/26 12:04:45;;;;;;;0.63;0.50;;;;;;;31.87;25.74;99611.44;5110992;28;43075;-79
2022/05/26 12:07:38;;;;;;;0.73;0.50;;;;;;;34.52;23.43;99617.44;5111245;28;42165;-81
2022/05/26 12:10:21;;;;;;;2.07;0.57;;;;;;;36.64;20.99;99635.56;5111167;28;38794;-79
2022/05/26 12:12:49;;;;;;;0.83;0.50;;;;;;;37.29;19.94;99646.19;5111134;28;41663;-79
2022/05/26 12:15:22;;;;;;;0.50;0.50;;;;;;;37.70;19.76;99635.81;5093632;28;42722;-80
2022/05/26 12:17:52;;;;;;;0.57;0.57;;;;;;;38.74;19.24;99625.59;5110834;28;41284;-82
2022/05/26 12:20:34;;;;;;;0.80;0.60;;;;;;;39.27;18.48;99629.44;5111229;28;39646;-81
2022/05/26 12:23:26;;;;;;;3.07;0.60;;;;;;;39.72;17.09;99636.44;5108559;28;41938;-82
2022/05/26 12:26:32;;;;;;;0.60;0.60;;;;;;;40.45;16.90;99645.75;5109153;28;43777;-78
2022/05/26 12:29:51;;;;;;;0.50;0.50;;;;;;;41.30;16.95;99633.19;5068514;28;41200;-79
2022/05/26 12:32:23;;;;;;;1.73;0.80;;;;;;;40.84;17.69;99619.25;5074035;28;38918;-80
2022/05/26 12:35:03;;;;;;;1.00;0.80;;;;;;;39.92;17.17;99636.63;5093354;28;42260;-79
2022/05/26 12:37:42;;;;;;;0.93;0.70;;;;;;;40.37;17.93;99635.19;5103850;27;42750;-80